sensor_id;sensor_type;location;lat;lon;timestamp;P1;durP1;ratioP1;P2;durP2;ratioP2
13269;SDS011;6703;51.994;7.570;2023-04-12T00:00:16;11.23;;;1.88;;
13269;SDS011;6703;51.994;7.570;2023-04-12T00:02:43;10.02;;;1.85;;
13269;SDS011;6703;51.994;7.570;2023-04-12T00:05:11;15.87;;;2.40;;
13269;SDS011;6703;51.994;7.570;2023-04-12T00:07:41;6.20;;;1.60;;
13269;SDS011;6703;51.994;7.570;2023-04-12T00:10:12;12.85;;;2.47;;
13269;SDS011;6703;51.994;7.570;2023-04-12T00:12:39;13.73;;;2.20;;
13269;SDS011;6703;51.994;7.570;2023-04-12T00:15:08;13.35;;;2.40;;
13269;SDS011;6703;51.994;7.570;2023-04-12T00:17:36;10.05;;;2.30;;
13269;SDS011;6703;51.994;7.570;2023-04-12T00:20:04;7.10;;;1.83;;
13269;SDS011;6703;51.994;7.570;2023-04-12T00:22:37;10.52;;;2.15;;
13269;SDS011;6703;51.994;7.570;2023-04-12T00:25:06;11.43;;;1.80;;
13269;SDS011;6703;51.994;7.570;2023-04-12T00:27:34;13.70;;;2.35;;
13269;SDS011;6703;51.994;7.570;2023-04-12T00:30:02;10.55;;;2.15;;
13269;SDS011;6703;51.994;7.570;2023-04-12T00:32:31;10.18;;;1.88;;
13269;SDS011;6703;51.994;7.570;2023-04-12T00:34:58;6.32;;;1.70;;
13269;SDS011;6703;51.994;7.570;2023-04-12T00:37:26;10.13;;;1.93;;
13269;SDS011;6703;51.994;7.570;2023-04-12T00:39:54;9.77;;;1.88;;
13269;SDS011;6703;51.994;7.570;2023-04-12T00:42:23;8.70;;;1.75;;
13269;SDS011;6703;51.994;7.570;2023-04-12T00:45:06;9.18;;;2.15;;
13269;SDS011;6703;51.994;7.570;2023-04-12T00:47:34;10.15;;;2.08;;
13269;SDS011;6703;51.994;7.570;2023-04-12T00:50:03;13.60;;;1.80;;
13269;SDS011;6703;51.994;7.570;2023-04-12T00:52:32;7.35;;;1.60;;
13269;SDS011;6703;51.994;7.570;2023-04-12T00:55:01;7.97;;;1.90;;
13269;SDS011;6703;51.994;7.570;2023-04-12T00:57:33;6.30;;;1.50;;
13269;SDS011;6703;51.994;7.570;2023-04-12T01:00:01;11.80;;;1.73;;
13269;SDS011;6703;51.994;7.570;2023-04-12T01:02:31;6.38;;;1.67;;
13269;SDS011;6703;51.994;7.570;2023-04-12T01:05:00;8.82;;;1.90;;
13269;SDS011;6703;51.994;7.570;2023-04-12T01:07:30;9.73;;;1.77;;
13269;SDS011;6703;51.994;7.570;2023-04-12T01:10:06;13.60;;;1.83;;
13269;SDS011;6703;51.994;7.570;2023-04-12T01:12:40;8.80;;;1.98;;
13269;SDS011;6703;51.994;7.570;2023-04-12T01:15:13;10.98;;;2.15;;
13269;SDS011;6703;51.994;7.570;2023-04-12T01:17:42;10.35;;;1.95;;
13269;SDS011;6703;51.994;7.570;2023-04-12T01:20:14;6.55;;;1.45;;
13269;SDS011;6703;51.994;7.570;2023-04-12T01:23:01;8.73;;;1.70;;
13269;SDS011;6703;51.994;7.570;2023-04-12T01:25:50;8.02;;;1.40;;
13269;SDS011;6703;51.994;7.570;2023-04-12T01:28:37;9.15;;;1.70;;
13269;SDS011;6703;51.994;7.570;2023-04-12T01:31:07;9.98;;;2.30;;
13269;SDS011;6703;51.994;7.570;2023-04-12T01:33:35;11.13;;;1.70;;
13269;SDS011;6703;51.994;7.570;2023-04-12T01:36:06;8.38;;;1.35;;
13269;SDS011;6703;51.994;7.570;2023-04-12T01:38:38;9.73;;;1.70;;
13269;SDS011;6703;51.994;7.570;2023-04-12T01:41:07;7.68;;;1.48;;
13269;SDS011;6703;51.994;7.570;2023-04-12T01:43:40;9.27;;;1.80;;
13269;SDS011;6703;51.994;7.570;2023-04-12T01:46:08;10.10;;;1.77;;
13269;SDS011;6703;51.994;7.570;2023-04-12T01:48:37;10.20;;;1.50;;
13269;SDS011;6703;51.994;7.570;2023-04-12T01:51:05;8.60;;;1.40;;
13269;SDS011;6703;51.994;7.570;2023-04-12T01:53:38;8.07;;;1.30;;
13269;SDS011;6703;51.994;7.570;2023-04-12T01:56:13;11.10;;;1.30;;
13269;SDS011;6703;51.994;7.570;2023-04-12T01:58:43;14.95;;;1.67;;
13269;SDS011;6703;51.994;7.570;2023-04-12T02:01:13;11.38;;;1.75;;
13269;SDS011;6703;51.994;7.570;2023-04-12T02:03:41;9.95;;;1.63;;
13269;SDS011;6703;51.994;7.570;2023-04-12T02:06:10;11.98;;;2.10;;
13269;SDS011;6703;51.994;7.570;2023-04-12T02:08:38;10.93;;;1.45;;
13269;SDS011;6703;51.994;7.570;2023-04-12T02:11:09;7.60;;;1.40;;
13269;SDS011;6703;51.994;7.570;2023-04-12T02:13:38;9.23;;;1.30;;
13269;SDS011;6703;51.994;7.570;2023-04-12T02:16:07;4.40;;;1.50;;
13269;SDS011;6703;51.994;7.570;2023-04-12T02:18:36;4.30;;;1.42;;
13269;SDS011;6703;51.994;7.570;2023-04-12T02:21:06;6.82;;;1.42;;
13269;SDS011;6703;51.994;7.570;2023-04-12T02:23:34;7.78;;;1.73;;
13269;SDS011;6703;51.994;7.570;2023-04-12T02:26:02;11.82;;;1.60;;
13269;SDS011;6703;51.994;7.570;2023-04-12T02:28:29;10.95;;;1.60;;
13269;SDS011;6703;51.994;7.570;2023-04-12T02:30:59;6.37;;;1.33;;
13269;SDS011;6703;51.994;7.570;2023-04-12T02:33:28;7.35;;;1.30;;
13269;SDS011;6703;51.994;7.570;2023-04-12T02:35:56;8.07;;;1.45;;
13269;SDS011;6703;51.994;7.570;2023-04-12T02:38:24;5.53;;;1.65;;
13269;SDS011;6703;51.994;7.570;2023-04-12T02:40:52;11.07;;;1.97;;
13269;SDS011;6703;51.994;7.570;2023-04-12T02:43:20;8.30;;;1.30;;
13269;SDS011;6703;51.994;7.570;2023-04-12T02:45:47;10.07;;;1.70;;
13269;SDS011;6703;51.994;7.570;2023-04-12T02:48:15;8.98;;;1.67;;
13269;SDS011;6703;51.994;7.570;2023-04-12T02:50:44;8.80;;;1.42;;
13269;SDS011;6703;51.994;7.570;2023-04-12T02:53:12;8.65;;;1.58;;
13269;SDS011;6703;51.994;7.570;2023-04-12T02:55:40;8.07;;;1.60;;
13269;SDS011;6703;51.994;7.570;2023-04-12T02:58:07;10.95;;;1.60;;
13269;SDS011;6703;51.994;7.570;2023-04-12T03:00:35;7.85;;;1.30;;
13269;SDS011;6703;51.994;7.570;2023-04-12T03:03:03;11.65;;;1.80;;
13269;SDS011;6703;51.994;7.570;2023-04-12T03:05:31;8.25;;;1.58;;
13269;SDS011;6703;51.994;7.570;2023-04-12T03:08:00;12.23;;;1.65;;
13269;SDS011;6703;51.994;7.570;2023-04-12T03:10:28;7.43;;;1.70;;
13269;SDS011;6703;51.994;7.570;2023-04-12T03:12:55;5.35;;;1.30;;
13269;SDS011;6703;51.994;7.570;2023-04-12T03:15:23;6.65;;;1.23;;
13269;SDS011;6703;51.994;7.570;2023-04-12T03:17:53;7.00;;;1.40;;
13269;SDS011;6703;51.994;7.570;2023-04-12T03:20:21;6.80;;;1.42;;
13269;SDS011;6703;51.994;7.570;2023-04-12T03:22:50;7.97;;;1.40;;
13269;SDS011;6703;51.994;7.570;2023-04-12T03:25:19;5.07;;;1.63;;
13269;SDS011;6703;51.994;7.570;2023-04-12T03:27:47;8.52;;;1.40;;
13269;SDS011;6703;51.994;7.570;2023-04-12T03:30:14;6.07;;;1.20;;
13269;SDS011;6703;51.994;7.570;2023-04-12T03:32:42;5.68;;;1.40;;
13269;SDS011;6703;51.994;7.570;2023-04-12T03:35:10;5.78;;;1.30;;
13269;SDS011;6703;51.994;7.570;2023-04-12T03:37:39;6.15;;;1.40;;
13269;SDS011;6703;51.994;7.570;2023-04-12T03:40:08;7.80;;;1.80;;
13269;SDS011;6703;51.994;7.570;2023-04-12T03:42:37;4.55;;;0.90;;
13269;SDS011;6703;51.994;7.570;2023-04-12T03:45:06;5.67;;;1.20;;
13269;SDS011;6703;51.994;7.570;2023-04-12T03:47:34;5.35;;;1.23;;
13269;SDS011;6703;51.994;7.570;2023-04-12T03:50:02;5.80;;;1.00;;
13269;SDS011;6703;51.994;7.570;2023-04-12T03:52:35;9.35;;;1.20;;
13269;SDS011;6703;51.994;7.570;2023-04-12T03:55:04;6.80;;;1.20;;
13269;SDS011;6703;51.994;7.570;2023-04-12T03:57:33;8.50;;;1.98;;
13269;SDS011;6703;51.994;7.570;2023-04-12T04:00:03;9.35;;;1.35;;
13269;SDS011;6703;51.994;7.570;2023-04-12T04:02:33;4.30;;;1.30;;
13269;SDS011;6703;51.994;7.570;2023-04-12T04:05:02;7.53;;;1.20;;
13269;SDS011;6703;51.994;7.570;2023-04-12T04:07:30;3.57;;;0.97;;
13269;SDS011;6703;51.994;7.570;2023-04-12T04:09:58;4.40;;;1.17;;
13269;SDS011;6703;51.994;7.570;2023-04-12T04:12:26;5.28;;;1.13;;
13269;SDS011;6703;51.994;7.570;2023-04-12T04:14:54;5.13;;;0.95;;
13269;SDS011;6703;51.994;7.570;2023-04-12T04:17:23;10.38;;;1.40;;
13269;SDS011;6703;51.994;7.570;2023-04-12T04:19:50;5.82;;;1.33;;
13269;SDS011;6703;51.994;7.570;2023-04-12T04:22:36;6.57;;;1.37;;
13269;SDS011;6703;51.994;7.570;2023-04-12T04:25:04;8.32;;;1.38;;
13269;SDS011;6703;51.994;7.570;2023-04-12T04:27:33;3.35;;;1.17;;
13269;SDS011;6703;51.994;7.570;2023-04-12T04:30:04;8.55;;;1.45;;
13269;SDS011;6703;51.994;7.570;2023-04-12T04:32:34;11.03;;;1.33;;
13269;SDS011;6703;51.994;7.570;2023-04-12T04:35:02;6.13;;;1.25;;
13269;SDS011;6703;51.994;7.570;2023-04-12T04:37:30;3.57;;;1.20;;
13269;SDS011;6703;51.994;7.570;2023-04-12T04:39:58;6.22;;;1.20;;
13269;SDS011;6703;51.994;7.570;2023-04-12T04:42:26;7.57;;;1.10;;
13269;SDS011;6703;51.994;7.570;2023-04-12T04:44:55;6.13;;;1.50;;
13269;SDS011;6703;51.994;7.570;2023-04-12T04:47:25;3.72;;;0.98;;
13269;SDS011;6703;51.994;7.570;2023-04-12T04:49:58;6.22;;;1.10;;
13269;SDS011;6703;51.994;7.570;2023-04-12T04:52:26;4.37;;;0.90;;
13269;SDS011;6703;51.994;7.570;2023-04-12T04:54:53;4.05;;;1.17;;
13269;SDS011;6703;51.994;7.570;2023-04-12T04:57:23;4.70;;;1.13;;
13269;SDS011;6703;51.994;7.570;2023-04-12T04:59:52;5.25;;;1.00;;
13269;SDS011;6703;51.994;7.570;2023-04-12T05:02:19;5.53;;;1.35;;
13269;SDS011;6703;51.994;7.570;2023-04-12T05:04:47;3.10;;;1.00;;
13269;SDS011;6703;51.994;7.570;2023-04-12T05:07:16;3.10;;;1.13;;
13269;SDS011;6703;51.994;7.570;2023-04-12T05:09:44;7.38;;;1.40;;
13269;SDS011;6703;51.994;7.570;2023-04-12T05:12:12;5.10;;;1.20;;
13269;SDS011;6703;51.994;7.570;2023-04-12T05:14:40;5.95;;;1.58;;
13269;SDS011;6703;51.994;7.570;2023-04-12T05:17:16;4.88;;;1.00;;
13269;SDS011;6703;51.994;7.570;2023-04-12T05:19:44;5.03;;;1.40;;
13269;SDS011;6703;51.994;7.570;2023-04-12T05:22:11;3.53;;;1.20;;
13269;SDS011;6703;51.994;7.570;2023-04-12T05:24:41;4.53;;;1.23;;
13269;SDS011;6703;51.994;7.570;2023-04-12T05:27:08;8.48;;;1.40;;
13269;SDS011;6703;51.994;7.570;2023-04-12T05:29:36;9.35;;;1.27;;
13269;SDS011;6703;51.994;7.570;2023-04-12T05:32:04;6.90;;;1.33;;
13269;SDS011;6703;51.994;7.570;2023-04-12T05:34:44;5.28;;;1.20;;
13269;SDS011;6703;51.994;7.570;2023-04-12T05:37:12;4.97;;;1.20;;
13269;SDS011;6703;51.994;7.570;2023-04-12T05:39:42;6.50;;;1.40;;
13269;SDS011;6703;51.994;7.570;2023-04-12T05:42:09;6.75;;;1.20;;
13269;SDS011;6703;51.994;7.570;2023-04-12T05:44:37;3.20;;;1.30;;
13269;SDS011;6703;51.994;7.570;2023-04-12T05:47:05;4.03;;;1.20;;
13269;SDS011;6703;51.994;7.570;2023-04-12T05:49:33;3.78;;;1.13;;
13269;SDS011;6703;51.994;7.570;2023-04-12T05:52:01;6.73;;;1.50;;
13269;SDS011;6703;51.994;7.570;2023-04-12T05:54:29;7.25;;;1.30;;
13269;SDS011;6703;51.994;7.570;2023-04-12T05:56:58;6.15;;;1.20;;
13269;SDS011;6703;51.994;7.570;2023-04-12T05:59:26;3.97;;;1.17;;
13269;SDS011;6703;51.994;7.570;2023-04-12T06:01:54;5.03;;;1.50;;
13269;SDS011;6703;51.994;7.570;2023-04-12T06:04:22;3.70;;;1.30;;
13269;SDS011;6703;51.994;7.570;2023-04-12T06:07:00;4.15;;;1.38;;
13269;SDS011;6703;51.994;7.570;2023-04-12T06:09:27;5.38;;;1.30;;
13269;SDS011;6703;51.994;7.570;2023-04-12T06:11:55;5.05;;;1.23;;
13269;SDS011;6703;51.994;7.570;2023-04-12T06:14:24;4.40;;;1.20;;
13269;SDS011;6703;51.994;7.570;2023-04-12T06:16:52;4.30;;;1.30;;
13269;SDS011;6703;51.994;7.570;2023-04-12T06:19:20;3.42;;;1.20;;
13269;SDS011;6703;51.994;7.570;2023-04-12T06:21:48;4.13;;;1.10;;
13269;SDS011;6703;51.994;7.570;2023-04-12T06:24:16;8.63;;;1.27;;
13269;SDS011;6703;51.994;7.570;2023-04-12T06:26:43;3.90;;;0.95;;
13269;SDS011;6703;51.994;7.570;2023-04-12T06:29:13;2.72;;;1.20;;
13269;SDS011;6703;51.994;7.570;2023-04-12T06:31:42;5.82;;;1.63;;
13269;SDS011;6703;51.994;7.570;2023-04-12T06:34:10;5.75;;;1.30;;
13269;SDS011;6703;51.994;7.570;2023-04-12T06:36:38;3.38;;;1.20;;
13269;SDS011;6703;51.994;7.570;2023-04-12T06:39:06;5.25;;;1.33;;
13269;SDS011;6703;51.994;7.570;2023-04-12T06:41:37;6.03;;;1.33;;
13269;SDS011;6703;51.994;7.570;2023-04-12T06:44:04;4.18;;;1.00;;
13269;SDS011;6703;51.994;7.570;2023-04-12T06:46:32;4.30;;;1.30;;
13269;SDS011;6703;51.994;7.570;2023-04-12T06:49:02;3.80;;;0.98;;
13269;SDS011;6703;51.994;7.570;2023-04-12T06:51:29;2.33;;;0.98;;
13269;SDS011;6703;51.994;7.570;2023-04-12T06:53:57;5.03;;;1.70;;
13269;SDS011;6703;51.994;7.570;2023-04-12T06:56:25;6.28;;;2.90;;
13269;SDS011;6703;51.994;7.570;2023-04-12T06:59:08;3.00;;;1.23;;
13269;SDS011;6703;51.994;7.570;2023-04-12T07:01:37;5.07;;;1.30;;
13269;SDS011;6703;51.994;7.570;2023-04-12T07:04:08;6.28;;;1.20;;
13269;SDS011;6703;51.994;7.570;2023-04-12T07:06:36;3.95;;;1.13;;
13269;SDS011;6703;51.994;7.570;2023-04-12T07:09:04;3.85;;;1.17;;
13269;SDS011;6703;51.994;7.570;2023-04-12T07:11:31;5.78;;;0.95;;
13269;SDS011;6703;51.994;7.570;2023-04-12T07:13:59;4.30;;;0.98;;
13269;SDS011;6703;51.994;7.570;2023-04-12T07:16:28;1.88;;;1.00;;
13269;SDS011;6703;51.994;7.570;2023-04-12T07:18:57;1.60;;;0.85;;
13269;SDS011;6703;51.994;7.570;2023-04-12T07:21:27;2.30;;;1.08;;
13269;SDS011;6703;51.994;7.570;2023-04-12T07:23:55;2.90;;;1.20;;
13269;SDS011;6703;51.994;7.570;2023-04-12T07:26:22;1.40;;;0.80;;
13269;SDS011;6703;51.994;7.570;2023-04-12T07:28:51;2.97;;;1.23;;
13269;SDS011;6703;51.994;7.570;2023-04-12T07:31:20;2.25;;;1.00;;
13269;SDS011;6703;51.994;7.570;2023-04-12T07:33:48;3.13;;;1.00;;
13269;SDS011;6703;51.994;7.570;2023-04-12T07:36:17;2.53;;;0.77;;
13269;SDS011;6703;51.994;7.570;2023-04-12T07:38:48;3.38;;;0.93;;
13269;SDS011;6703;51.994;7.570;2023-04-12T07:41:21;2.97;;;1.10;;
13269;SDS011;6703;51.994;7.570;2023-04-12T07:43:49;6.70;;;1.38;;
13269;SDS011;6703;51.994;7.570;2023-04-12T07:46:16;2.67;;;0.90;;
13269;SDS011;6703;51.994;7.570;2023-04-12T07:48:44;1.15;;;0.60;;
13269;SDS011;6703;51.994;7.570;2023-04-12T07:51:12;5.38;;;1.20;;
13269;SDS011;6703;51.994;7.570;2023-04-12T07:53:40;3.03;;;0.93;;
13269;SDS011;6703;51.994;7.570;2023-04-12T07:56:09;2.22;;;0.88;;
13269;SDS011;6703;51.994;7.570;2023-04-12T07:58:36;3.97;;;1.10;;
13269;SDS011;6703;51.994;7.570;2023-04-12T08:01:04;1.80;;;0.80;;
13269;SDS011;6703;51.994;7.570;2023-04-12T08:03:33;1.85;;;0.88;;
13269;SDS011;6703;51.994;7.570;2023-04-12T08:06:01;2.60;;;1.00;;
13269;SDS011;6703;51.994;7.570;2023-04-12T08:08:29;3.72;;;1.13;;
13269;SDS011;6703;51.994;7.570;2023-04-12T08:10:57;4.90;;;1.10;;
13269;SDS011;6703;51.994;7.570;2023-04-12T08:13:26;3.58;;;0.88;;
13269;SDS011;6703;51.994;7.570;2023-04-12T08:15:53;1.60;;;0.80;;
13269;SDS011;6703;51.994;7.570;2023-04-12T08:18:21;2.17;;;1.00;;
13269;SDS011;6703;51.994;7.570;2023-04-12T08:20:49;1.58;;;0.80;;
13269;SDS011;6703;51.994;7.570;2023-04-12T08:23:17;4.20;;;0.70;;
13269;SDS011;6703;51.994;7.570;2023-04-12T08:25:45;1.30;;;0.70;;
13269;SDS011;6703;51.994;7.570;2023-04-12T08:28:12;2.07;;;0.80;;
13269;SDS011;6703;51.994;7.570;2023-04-12T08:30:42;2.05;;;0.90;;
13269;SDS011;6703;51.994;7.570;2023-04-12T08:33:09;3.50;;;0.80;;
13269;SDS011;6703;51.994;7.570;2023-04-12T08:35:37;0.85;;;0.60;;
13269;SDS011;6703;51.994;7.570;2023-04-12T08:38:06;2.03;;;0.65;;
13269;SDS011;6703;51.994;7.570;2023-04-12T08:40:34;2.35;;;0.63;;
13269;SDS011;6703;51.994;7.570;2023-04-12T08:43:02;2.08;;;0.77;;
13269;SDS011;6703;51.994;7.570;2023-04-12T08:45:34;1.15;;;0.73;;
13269;SDS011;6703;51.994;7.570;2023-04-12T08:48:04;2.83;;;0.82;;
13269;SDS011;6703;51.994;7.570;2023-04-12T08:50:32;0.50;;;0.50;;
13269;SDS011;6703;51.994;7.570;2023-04-12T08:53:00;1.40;;;0.80;;
13269;SDS011;6703;51.994;7.570;2023-04-12T08:55:28;1.92;;;0.90;;
13269;SDS011;6703;51.994;7.570;2023-04-12T08:57:55;2.42;;;0.60;;
13269;SDS011;6703;51.994;7.570;2023-04-12T09:00:24;3.83;;;0.73;;
13269;SDS011;6703;51.994;7.570;2023-04-12T09:02:52;1.20;;;0.70;;
13269;SDS011;6703;51.994;7.570;2023-04-12T09:05:26;1.98;;;0.68;;
13269;SDS011;6703;51.994;7.570;2023-04-12T09:07:55;2.42;;;0.73;;
13269;SDS011;6703;51.994;7.570;2023-04-12T09:10:30;1.98;;;0.70;;
13269;SDS011;6703;51.994;7.570;2023-04-12T09:12:59;2.25;;;0.70;;
13269;SDS011;6703;51.994;7.570;2023-04-12T09:15:27;1.02;;;0.65;;
13269;SDS011;6703;51.994;7.570;2023-04-12T09:18:02;2.83;;;0.73;;
13269;SDS011;6703;51.994;7.570;2023-04-12T09:20:32;1.92;;;1.00;;
13269;SDS011;6703;51.994;7.570;2023-04-12T09:25:50;1.90;;;0.75;;
13269;SDS011;6703;51.994;7.570;2023-04-12T09:28:22;2.08;;;0.57;;
13269;SDS011;6703;51.994;7.570;2023-04-12T09:30:52;1.23;;;0.60;;
13269;SDS011;6703;51.994;7.570;2023-04-12T09:33:21;2.83;;;0.63;;
13269;SDS011;6703;51.994;7.570;2023-04-12T09:35:51;2.33;;;0.60;;
13269;SDS011;6703;51.994;7.570;2023-04-12T09:38:26;1.45;;;0.60;;
13269;SDS011;6703;51.994;7.570;2023-04-12T09:40:54;2.35;;;0.70;;
13269;SDS011;6703;51.994;7.570;2023-04-12T09:43:34;1.00;;;0.60;;
13269;SDS011;6703;51.994;7.570;2023-04-12T09:46:09;4.15;;;0.82;;
13269;SDS011;6703;51.994;7.570;2023-04-12T09:48:38;1.47;;;0.70;;
13269;SDS011;6703;51.994;7.570;2023-04-12T09:51:08;2.08;;;0.75;;
13269;SDS011;6703;51.994;7.570;2023-04-12T09:53:37;1.03;;;0.57;;
13269;SDS011;6703;51.994;7.570;2023-04-12T09:56:07;2.22;;;0.70;;
13269;SDS011;6703;51.994;7.570;2023-04-12T09:58:36;3.00;;;0.90;;
13269;SDS011;6703;51.994;7.570;2023-04-12T10:01:10;2.33;;;0.88;;
13269;SDS011;6703;51.994;7.570;2023-04-12T10:03:41;2.85;;;1.00;;
13269;SDS011;6703;51.994;7.570;2023-04-12T10:06:11;1.48;;;0.80;;
13269;SDS011;6703;51.994;7.570;2023-04-12T10:08:38;1.15;;;0.70;;
13269;SDS011;6703;51.994;7.570;2023-04-12T10:11:07;2.10;;;0.82;;
13269;SDS011;6703;51.994;7.570;2023-04-12T10:13:35;1.35;;;0.90;;
13269;SDS011;6703;51.994;7.570;2023-04-12T10:16:03;0.73;;;0.73;;
13269;SDS011;6703;51.994;7.570;2023-04-12T10:18:33;1.55;;;0.95;;
13269;SDS011;6703;51.994;7.570;2023-04-12T10:21:02;2.60;;;1.43;;
13269;SDS011;6703;51.994;7.570;2023-04-12T10:23:32;2.95;;;0.90;;
13269;SDS011;6703;51.994;7.570;2023-04-12T10:26:01;2.60;;;1.20;;
13269;SDS011;6703;51.994;7.570;2023-04-12T10:28:30;1.33;;;0.90;;
13269;SDS011;6703;51.994;7.570;2023-04-12T10:30:58;1.58;;;1.10;;
13269;SDS011;6703;51.994;7.570;2023-04-12T10:33:28;1.60;;;1.10;;
13269;SDS011;6703;51.994;7.570;2023-04-12T10:35:57;3.10;;;1.30;;
13269;SDS011;6703;51.994;7.570;2023-04-12T10:38:28;2.08;;;1.40;;
13269;SDS011;6703;51.994;7.570;2023-04-12T10:41:07;2.13;;;1.45;;
13269;SDS011;6703;51.994;7.570;2023-04-12T10:43:37;2.95;;;1.17;;
13269;SDS011;6703;51.994;7.570;2023-04-12T10:46:05;1.95;;;1.10;;
13269;SDS011;6703;51.994;7.570;2023-04-12T10:48:33;2.45;;;0.85;;
13269;SDS011;6703;51.994;7.570;2023-04-12T10:53:52;2.78;;;1.30;;
13269;SDS011;6703;51.994;7.570;2023-04-12T10:56:34;1.60;;;1.00;;
13269;SDS011;6703;51.994;7.570;2023-04-12T10:59:04;3.97;;;1.08;;
13269;SDS011;6703;51.994;7.570;2023-04-12T11:01:32;1.00;;;0.70;;
13269;SDS011;6703;51.994;7.570;2023-04-12T11:04:04;2.28;;;0.70;;
13269;SDS011;6703;51.994;7.570;2023-04-12T11:06:40;1.20;;;0.65;;
13269;SDS011;6703;51.994;7.570;2023-04-12T11:09:25;1.20;;;0.70;;
13269;SDS011;6703;51.994;7.570;2023-04-12T11:12:09;1.10;;;0.68;;
13269;SDS011;6703;51.994;7.570;2023-04-12T11:14:42;2.13;;;0.80;;
13269;SDS011;6703;51.994;7.570;2023-04-12T11:17:23;1.33;;;0.63;;
13269;SDS011;6703;51.994;7.570;2023-04-12T11:19:53;1.38;;;0.80;;
13269;SDS011;6703;51.994;7.570;2023-04-12T11:22:23;2.08;;;0.60;;
13269;SDS011;6703;51.994;7.570;2023-04-12T11:24:53;1.97;;;0.93;;
13269;SDS011;6703;51.994;7.570;2023-04-12T11:27:23;2.35;;;0.98;;
13269;SDS011;6703;51.994;7.570;2023-04-12T11:30:15;3.88;;;1.10;;
13269;SDS011;6703;51.994;7.570;2023-04-12T11:32:43;1.35;;;1.00;;
13269;SDS011;6703;51.994;7.570;2023-04-12T11:35:13;6.50;;;1.48;;
13269;SDS011;6703;51.994;7.570;2023-04-12T11:37:41;2.80;;;1.30;;
13269;SDS011;6703;51.994;7.570;2023-04-12T11:40:10;2.03;;;1.30;;
13269;SDS011;6703;51.994;7.570;2023-04-12T11:42:39;1.80;;;1.30;;
13269;SDS011;6703;51.994;7.570;2023-04-12T11:45:07;5.28;;;1.40;;
13269;SDS011;6703;51.994;7.570;2023-04-12T11:47:44;2.78;;;1.42;;
13269;SDS011;6703;51.994;7.570;2023-04-12T11:50:12;1.77;;;1.42;;
13269;SDS011;6703;51.994;7.570;2023-04-12T11:52:39;2.83;;;1.65;;
13269;SDS011;6703;51.994;7.570;2023-04-12T11:55:07;2.78;;;1.75;;
13269;SDS011;6703;51.994;7.570;2023-04-12T11:57:37;2.00;;;1.40;;
13269;SDS011;6703;51.994;7.570;2023-04-12T12:00:08;4.70;;;1.65;;
13269;SDS011;6703;51.994;7.570;2023-04-12T12:02:36;2.70;;;1.73;;
13269;SDS011;6703;51.994;7.570;2023-04-12T12:05:21;2.08;;;1.70;;
13269;SDS011;6703;51.994;7.570;2023-04-12T12:07:49;3.33;;;1.80;;
13269;SDS011;6703;51.994;7.570;2023-04-12T12:10:18;4.13;;;2.00;;
13269;SDS011;6703;51.994;7.570;2023-04-12T12:13:08;2.42;;;2.03;;
13269;SDS011;6703;51.994;7.570;2023-04-12T12:15:38;3.53;;;2.20;;
13269;SDS011;6703;51.994;7.570;2023-04-12T12:18:10;4.35;;;2.50;;
13269;SDS011;6703;51.994;7.570;2023-04-12T12:20:38;4.40;;;2.33;;
13269;SDS011;6703;51.994;7.570;2023-04-12T12:23:08;3.22;;;2.10;;
13269;SDS011;6703;51.994;7.570;2023-04-12T12:25:35;3.85;;;1.95;;
13269;SDS011;6703;51.994;7.570;2023-04-12T12:28:04;4.18;;;1.45;;
13269;SDS011;6703;51.994;7.570;2023-04-12T12:30:36;1.27;;;0.90;;
13269;SDS011;6703;51.994;7.570;2023-04-12T12:33:06;2.25;;;0.88;;
13269;SDS011;6703;51.994;7.570;2023-04-12T12:35:35;1.90;;;0.90;;
13269;SDS011;6703;51.994;7.570;2023-04-12T12:38:05;1.30;;;0.90;;
13269;SDS011;6703;51.994;7.570;2023-04-12T12:40:33;1.95;;;1.10;;
13269;SDS011;6703;51.994;7.570;2023-04-12T12:45:53;2.60;;;0.90;;
13269;SDS011;6703;51.994;7.570;2023-04-12T12:48:28;2.55;;;1.27;;
13269;SDS011;6703;51.994;7.570;2023-04-12T12:50:56;2.40;;;0.80;;
13269;SDS011;6703;51.994;7.570;2023-04-12T12:53:24;3.07;;;0.80;;
13269;SDS011;6703;51.994;7.570;2023-04-12T12:55:53;2.67;;;0.85;;
13269;SDS011;6703;51.994;7.570;2023-04-12T12:58:21;4.50;;;0.90;;
13269;SDS011;6703;51.994;7.570;2023-04-12T13:00:49;2.00;;;0.70;;
13269;SDS011;6703;51.994;7.570;2023-04-12T13:03:17;2.10;;;0.57;;
13269;SDS011;6703;51.994;7.570;2023-04-12T13:05:46;2.72;;;0.80;;
13269;SDS011;6703;51.994;7.570;2023-04-12T13:08:17;2.15;;;0.55;;
13269;SDS011;6703;51.994;7.570;2023-04-12T13:10:45;1.30;;;0.70;;
13269;SDS011;6703;51.994;7.570;2023-04-12T13:13:13;1.65;;;0.73;;
13269;SDS011;6703;51.994;7.570;2023-04-12T13:15:41;1.63;;;0.63;;
13269;SDS011;6703;51.994;7.570;2023-04-12T13:18:08;3.08;;;0.70;;
13269;SDS011;6703;51.994;7.570;2023-04-12T13:20:37;3.67;;;0.80;;
13269;SDS011;6703;51.994;7.570;2023-04-12T13:23:25;3.70;;;0.70;;
13269;SDS011;6703;51.994;7.570;2023-04-12T13:25:53;3.80;;;0.93;;
13269;SDS011;6703;51.994;7.570;2023-04-12T13:28:20;2.90;;;0.95;;
13269;SDS011;6703;51.994;7.570;2023-04-12T13:30:48;3.13;;;0.80;;
13269;SDS011;6703;51.994;7.570;2023-04-12T13:33:16;4.32;;;0.88;;
13269;SDS011;6703;51.994;7.570;2023-04-12T13:35:47;7.30;;;1.40;;
13269;SDS011;6703;51.994;7.570;2023-04-12T13:38:15;3.80;;;1.20;;
13269;SDS011;6703;51.994;7.570;2023-04-12T13:40:44;6.43;;;0.90;;
13269;SDS011;6703;51.994;7.570;2023-04-12T13:43:11;4.32;;;1.00;;
13269;SDS011;6703;51.994;7.570;2023-04-12T13:45:39;3.78;;;1.10;;
13269;SDS011;6703;51.994;7.570;2023-04-12T13:48:07;6.68;;;1.23;;
13269;SDS011;6703;51.994;7.570;2023-04-12T13:53:43;6.05;;;1.10;;
13269;SDS011;6703;51.994;7.570;2023-04-12T13:56:13;6.07;;;1.02;;
13269;SDS011;6703;51.994;7.570;2023-04-12T13:58:41;7.13;;;1.40;;
13269;SDS011;6703;51.994;7.570;2023-04-12T14:01:09;6.60;;;1.20;;
13269;SDS011;6703;51.994;7.570;2023-04-12T14:03:38;6.80;;;1.05;;
13269;SDS011;6703;51.994;7.570;2023-04-12T14:06:07;6.63;;;1.10;;
13269;SDS011;6703;51.994;7.570;2023-04-12T14:08:35;5.28;;;0.95;;
13269;SDS011;6703;51.994;7.570;2023-04-12T14:11:02;5.20;;;0.90;;
13269;SDS011;6703;51.994;7.570;2023-04-12T14:13:32;7.22;;;1.10;;
13269;SDS011;6703;51.994;7.570;2023-04-12T14:16:00;7.70;;;1.20;;
13269;SDS011;6703;51.994;7.570;2023-04-12T14:18:29;6.25;;;1.30;;
13269;SDS011;6703;51.994;7.570;2023-04-12T14:20:56;6.22;;;1.13;;
13269;SDS011;6703;51.994;7.570;2023-04-12T14:23:24;5.93;;;1.40;;
13269;SDS011;6703;51.994;7.570;2023-04-12T14:25:52;6.83;;;1.23;;
13269;SDS011;6703;51.994;7.570;2023-04-12T14:28:20;6.10;;;1.10;;
13269;SDS011;6703;51.994;7.570;2023-04-12T14:30:50;6.38;;;1.33;;
13269;SDS011;6703;51.994;7.570;2023-04-12T14:33:18;9.70;;;1.97;;
13269;SDS011;6703;51.994;7.570;2023-04-12T14:35:46;10.30;;;1.55;;
13269;SDS011;6703;51.994;7.570;2023-04-12T14:38:14;7.97;;;1.73;;
13269;SDS011;6703;51.994;7.570;2023-04-12T14:40:42;6.40;;;1.35;;
13269;SDS011;6703;51.994;7.570;2023-04-12T14:43:10;6.78;;;1.33;;
13269;SDS011;6703;51.994;7.570;2023-04-12T14:45:37;6.85;;;1.42;;
13269;SDS011;6703;51.994;7.570;2023-04-12T14:48:07;6.38;;;1.10;;
13269;SDS011;6703;51.994;7.570;2023-04-12T14:50:34;5.18;;;1.00;;
13269;SDS011;6703;51.994;7.570;2023-04-12T14:55:45;6.30;;;1.20;;
13269;SDS011;6703;51.994;7.570;2023-04-12T14:58:13;4.60;;;1.42;;
13269;SDS011;6703;51.994;7.570;2023-04-12T15:00:40;4.55;;;1.20;;
13269;SDS011;6703;51.994;7.570;2023-04-12T15:03:10;9.93;;;1.98;;
13269;SDS011;6703;51.994;7.570;2023-04-12T15:05:38;5.22;;;1.60;;
13269;SDS011;6703;51.994;7.570;2023-04-12T15:08:05;7.93;;;1.63;;
13269;SDS011;6703;51.994;7.570;2023-04-12T15:10:33;17.13;;;2.72;;
13269;SDS011;6703;51.994;7.570;2023-04-12T15:13:02;6.80;;;1.80;;
13269;SDS011;6703;51.994;7.570;2023-04-12T15:15:29;11.57;;;2.35;;
13269;SDS011;6703;51.994;7.570;2023-04-12T15:17:57;11.23;;;2.70;;
13269;SDS011;6703;51.994;7.570;2023-04-12T15:20:27;13.63;;;2.53;;
13269;SDS011;6703;51.994;7.570;2023-04-12T15:22:54;10.73;;;2.10;;
13269;SDS011;6703;51.994;7.570;2023-04-12T15:25:22;5.82;;;2.00;;
13269;SDS011;6703;51.994;7.570;2023-04-12T15:27:50;5.28;;;1.60;;